sensor_id;sensor_type;location;lat;lon;timestamp;pressure;altitude;pressure_sealevel;temperature;humidity
4705;BME280;2366;51.332;6.610;2023-01-25T00:00:44;103556.06;;;4.72;60.29
4705;BME280;2366;51.332;6.610;2023-01-25T00:03:10;103556.13;;;4.78;60.10
4705;BME280;2366;51.332;6.610;2023-01-25T00:05:35;103548.22;;;4.78;60.13
4705;BME280;2366;51.332;6.610;2023-01-25T00:08:00;103540.41;;;4.86;60.12
4705;BME280;2366;51.332;6.610;2023-01-25T00:10:26;103540.28;;;4.72;59.90
4705;BME280;2366;51.332;6.610;2023-01-25T00:12:51;103542.06;;;4.71;60.15
4705;BME280;2366;51.332;6.610;2023-01-25T00:15:16;103541.22;;;4.77;60.30
4705;BME280;2366;51.332;6.610;2023-01-25T00:17:42;103541.22;;;4.79;60.37
4705;BME280;2366;51.332;6.610;2023-01-25T00:20:08;103540.28;;;4.69;60.34
4705;BME280;2366;51.332;6.610;2023-01-25T00:22:33;103540.22;;;4.63;60.47
4705;BME280;2366;51.332;6.610;2023-01-25T00:24:59;103531.44;;;4.61;60.13
4705;BME280;2366;51.332;6.610;2023-01-25T00:27:24;103542.88;;;4.66;60.74
4705;BME280;2366;51.332;6.610;2023-01-25T00:29:49;103535.03;;;4.72;60.55
4705;BME280;2366;51.332;6.610;2023-01-25T00:34:48;103533.28;;;4.71;60.64
4705;BME280;2366;51.332;6.610;2023-01-25T00:39:50;103527.88;;;4.54;60.63
4705;BME280;2366;51.332;6.610;2023-01-25T00:42:16;103522.59;;;4.49;60.83
4705;BME280;2366;51.332;6.610;2023-01-25T00:44:43;103517.38;;;4.54;60.75
4705;BME280;2366;51.332;6.610;2023-01-25T00:47:09;103516.47;;;4.49;60.94
4705;BME280;2366;51.332;6.610;2023-01-25T00:49:35;103513.75;;;4.38;61.20
4705;BME280;2366;51.332;6.610;2023-01-25T00:52:02;103519.78;;;4.31;61.09
4705;BME280;2366;51.332;6.610;2023-01-25T00:54:27;103512.81;;;4.33;61.08
4705;BME280;2366;51.332;6.610;2023-01-25T00:56:53;103516.22;;;4.21;61.50
4705;BME280;2366;51.332;6.610;2023-01-25T00:59:21;103511.00;;;4.26;61.48
4705;BME280;2366;51.332;6.610;2023-01-25T01:01:46;103507.53;;;4.28;61.39
4705;BME280;2366;51.332;6.610;2023-01-25T01:04:12;103509.34;;;4.34;62.11
4705;BME280;2366;51.332;6.610;2023-01-25T01:06:38;103509.38;;;4.42;61.48
4705;BME280;2366;51.332;6.610;2023-01-25T01:09:04;103502.38;;;4.41;61.16
4705;BME280;2366;51.332;6.610;2023-01-25T01:11:30;103512.03;;;4.46;61.21
4705;BME280;2366;51.332;6.610;2023-01-25T01:13:57;103504.16;;;4.43;61.16
4705;BME280;2366;51.332;6.610;2023-01-25T01:16:22;103513.75;;;4.38;61.25
4705;BME280;2366;51.332;6.610;2023-01-25T01:18:48;103513.72;;;4.37;61.17
4705;BME280;2366;51.332;6.610;2023-01-25T01:21:13;103519.84;;;4.34;61.42
4705;BME280;2366;51.332;6.610;2023-01-25T01:23:39;103512.75;;;4.25;61.52
4705;BME280;2366;51.332;6.610;2023-01-25T01:26:07;103514.59;;;4.34;61.43
4705;BME280;2366;51.332;6.610;2023-01-25T01:28:34;103514.69;;;4.48;61.60
4705;BME280;2366;51.332;6.610;2023-01-25T01:31:01;103518.22;;;4.53;61.52
4705;BME280;2366;51.332;6.610;2023-01-25T01:33:26;103512.94;;;4.47;61.05
4705;BME280;2366;51.332;6.610;2023-01-25T01:35:51;103511.16;;;4.44;61.27
4705;BME280;2366;51.332;6.610;2023-01-25T01:38:17;103505.91;;;4.43;61.40
4705;BME280;2366;51.332;6.610;2023-01-25T01:40:46;103491.88;;;4.41;61.40
4705;BME280;2366;51.332;6.610;2023-01-25T01:43:18;103499.72;;;4.39;61.27
4705;BME280;2366;51.332;6.610;2023-01-25T01:45:48;103510.09;;;4.21;61.23
4705;BME280;2366;51.332;6.610;2023-01-25T01:48:16;103506.59;;;4.23;61.53
4705;BME280;2366;51.332;6.610;2023-01-25T01:50:43;103500.50;;;4.29;61.71
4705;BME280;2366;51.332;6.610;2023-01-25T01:53:09;103504.06;;;4.36;61.81
4705;BME280;2366;51.332;6.610;2023-01-25T01:55:35;103492.72;;;4.37;61.26
4705;BME280;2366;51.332;6.610;2023-01-25T01:58:01;103494.50;;;4.44;61.21
4705;BME280;2366;51.332;6.610;2023-01-25T02:00:30;103484.91;;;4.47;61.41
4705;BME280;2366;51.332;6.610;2023-01-25T02:02:57;103492.78;;;4.43;61.24
4705;BME280;2366;51.332;6.610;2023-01-25T02:05:53;103488.44;;;4.51;61.51
4705;BME280;2366;51.332;6.610;2023-01-25T02:08:20;103487.63;;;4.60;61.04
4705;BME280;2366;51.332;6.610;2023-01-25T02:10:48;103490.31;;;4.64;61.48
4705;BME280;2366;51.332;6.610;2023-01-25T02:13:14;103492.03;;;4.64;60.91
4705;BME280;2366;51.332;6.610;2023-01-25T02:15:43;103485.91;;;4.60;60.16
4705;BME280;2366;51.332;6.610;2023-01-25T02:18:09;103493.66;;;4.46;61.36
4705;BME280;2366;51.332;6.610;2023-01-25T02:20:41;103485.72;;;4.42;61.02
4705;BME280;2366;51.332;6.610;2023-01-25T02:23:17;103487.41;;;4.32;61.61
4705;BME280;2366;51.332;6.610;2023-01-25T02:25:46;103491.81;;;4.38;62.03
4705;BME280;2366;51.332;6.610;2023-01-25T02:28:22;103486.63;;;4.44;61.79
4705;BME280;2366;51.332;6.610;2023-01-25T02:30:48;103488.44;;;4.51;61.46
4705;BME280;2366;51.332;6.610;2023-01-25T02:33:14;103490.19;;;4.50;60.94
4705;BME280;2366;51.332;6.610;2023-01-25T02:35:42;103492.81;;;4.50;61.73
4705;BME280;2366;51.332;6.610;2023-01-25T02:38:12;103484.84;;;4.38;61.72
4705;BME280;2366;51.332;6.610;2023-01-25T02:40:44;103485.69;;;4.34;61.40
4705;BME280;2366;51.332;6.610;2023-01-25T02:43:10;103483.97;;;4.39;61.98
4705;BME280;2366;51.332;6.610;2023-01-25T02:45:36;103480.50;;;4.46;60.94
4705;BME280;2366;51.332;6.610;2023-01-25T02:48:01;103481.38;;;4.44;61.52
4705;BME280;2366;51.332;6.610;2023-01-25T02:50:26;103485.88;;;4.59;61.92
4705;BME280;2366;51.332;6.610;2023-01-25T02:52:51;103485.03;;;4.66;61.34
4705;BME280;2366;51.332;6.610;2023-01-25T02:55:17;103477.16;;;4.63;61.70
4705;BME280;2366;51.332;6.610;2023-01-25T02:57:42;103479.78;;;4.63;61.00
4705;BME280;2366;51.332;6.610;2023-01-25T03:00:08;103478.88;;;4.61;61.29
4705;BME280;2366;51.332;6.610;2023-01-25T03:02:34;103474.44;;;4.49;61.39
4705;BME280;2366;51.332;6.610;2023-01-25T03:04:59;103473.44;;;4.36;60.95
4705;BME280;2366;51.332;6.610;2023-01-25T03:07:24;103474.34;;;4.41;61.70
4705;BME280;2366;51.332;6.610;2023-01-25T03:09:50;103471.66;;;4.35;61.28
4705;BME280;2366;51.332;6.610;2023-01-25T03:12:15;103476.84;;;4.26;61.60
4705;BME280;2366;51.332;6.610;2023-01-25T03:14:40;103476.81;;;4.23;61.91
4705;BME280;2366;51.332;6.610;2023-01-25T03:17:08;103471.66;;;4.32;62.06
4705;BME280;2366;51.332;6.610;2023-01-25T03:19:33;103475.25;;;4.46;61.91
4705;BME280;2366;51.332;6.610;2023-01-25T03:21:59;103463.00;;;4.45;61.33
4705;BME280;2366;51.332;6.610;2023-01-25T03:24:24;103462.13;;;4.46;61.76
4705;BME280;2366;51.332;6.610;2023-01-25T03:26:49;103456.91;;;4.49;61.91
4705;BME280;2366;51.332;6.610;2023-01-25T03:29:33;103459.59;;;4.59;61.78
4705;BME280;2366;51.332;6.610;2023-01-25T03:31:59;103455.25;;;4.62;61.30
4705;BME280;2366;51.332;6.610;2023-01-25T03:34:24;103454.38;;;4.65;61.69
4705;BME280;2366;51.332;6.610;2023-01-25T03:36:49;103457.84;;;4.64;61.48
4705;BME280;2366;51.332;6.610;2023-01-25T03:39:15;103457.03;;;4.66;61.30
4705;BME280;2366;51.332;6.610;2023-01-25T03:41:40;103447.38;;;4.67;60.96
4705;BME280;2366;51.332;6.610;2023-01-25T03:44:05;103443.78;;;4.54;60.99
4705;BME280;2366;51.332;6.610;2023-01-25T03:46:31;103442.84;;;4.44;61.37
4705;BME280;2366;51.332;6.610;2023-01-25T03:48:56;103446.34;;;4.46;61.74
4705;BME280;2366;51.332;6.610;2023-01-25T03:51:21;103441.09;;;4.46;61.58
4705;BME280;2366;51.332;6.610;2023-01-25T03:53:47;103442.84;;;4.44;61.60
4705;BME280;2366;51.332;6.610;2023-01-25T03:56:12;103432.31;;;4.41;61.56
4705;BME280;2366;51.332;6.610;2023-01-25T03:58:44;103436.78;;;4.55;61.36
4705;BME280;2366;51.332;6.610;2023-01-25T04:01:09;103440.25;;;4.47;61.62
4705;BME280;2366;51.332;6.610;2023-01-25T04:03:34;103440.13;;;4.33;61.72
4705;BME280;2366;51.332;6.610;2023-01-25T04:06:00;103428.78;;;4.36;61.64
4705;BME280;2366;51.332;6.610;2023-01-25T04:08:25;103435.78;;;4.34;61.91
4705;BME280;2366;51.332;6.610;2023-01-25T04:10:56;103429.72;;;4.47;61.75
4705;BME280;2366;51.332;6.610;2023-01-25T04:13:25;103424.50;;;4.52;61.94
4705;BME280;2366;51.332;6.610;2023-01-25T04:15:51;103423.69;;;4.58;61.93
4705;BME280;2366;51.332;6.610;2023-01-25T04:18:18;103409.66;;;4.62;61.75
4705;BME280;2366;51.332;6.610;2023-01-25T04:20:44;103406.19;;;4.64;61.96
4705;BME280;2366;51.332;6.610;2023-01-25T04:23:10;103413.22;;;4.67;61.32
4705;BME280;2366;51.332;6.610;2023-01-25T04:25:36;103405.34;;;4.70;61.42
4705;BME280;2366;51.332;6.610;2023-01-25T04:28:02;103405.34;;;4.70;61.32
4705;BME280;2366;51.332;6.610;2023-01-25T04:30:27;103401.84;;;4.71;61.45
4705;BME280;2366;51.332;6.610;2023-01-25T04:32:53;103397.47;;;4.68;60.81
4705;BME280;2366;51.332;6.610;2023-01-25T04:35:18;103399.19;;;4.65;61.35
4705;BME280;2366;51.332;6.610;2023-01-25T04:37:57;103399.16;;;4.62;61.37
4705;BME280;2366;51.332;6.610;2023-01-25T04:40:22;103393.94;;;4.65;61.40
4705;BME280;2366;51.332;6.610;2023-01-25T04:42:48;103391.31;;;4.68;61.55
4705;BME280;2366;51.332;6.610;2023-01-25T04:45:13;103393.03;;;4.66;61.27
4705;BME280;2366;51.332;6.610;2023-01-25T04:47:39;103388.72;;;4.71;61.99
4705;BME280;2366;51.332;6.610;2023-01-25T04:50:04;103384.34;;;4.76;61.91
4705;BME280;2366;51.332;6.610;2023-01-25T04:52:30;103386.13;;;4.77;61.44
4705;BME280;2366;51.332;6.610;2023-01-25T04:54:55;103380.88;;;4.77;61.90
4705;BME280;2366;51.332;6.610;2023-01-25T04:57:20;103373.81;;;4.79;61.58
4705;BME280;2366;51.332;6.610;2023-01-25T04:59:46;103375.59;;;4.76;61.68
4705;BME280;2366;51.332;6.610;2023-01-25T05:02:11;103374.56;;;4.55;61.45
4705;BME280;2366;51.332;6.610;2023-01-25T05:04:36;103373.69;;;4.50;61.60
4705;BME280;2366;51.332;6.610;2023-01-25T05:07:02;103371.91;;;4.47;61.61
4705;BME280;2366;51.332;6.610;2023-01-25T05:09:27;103374.56;;;4.47;61.49
4705;BME280;2366;51.332;6.610;2023-01-25T05:11:52;103377.19;;;4.47;62.00
4705;BME280;2366;51.332;6.610;2023-01-25T05:14:18;103380.72;;;4.57;62.08
4705;BME280;2366;51.332;6.610;2023-01-25T05:16:43;103378.13;;;4.60;61.93
4705;BME280;2366;51.332;6.610;2023-01-25T05:19:09;103374.63;;;4.63;62.30
4705;BME280;2366;51.332;6.610;2023-01-25T05:21:34;103373.72;;;4.55;61.17
4705;BME280;2366;51.332;6.610;2023-01-25T05:24:18;103371.97;;;4.53;62.17
4705;BME280;2366;51.332;6.610;2023-01-25T05:26:43;103374.63;;;4.61;61.84
4705;BME280;2366;51.332;6.610;2023-01-25T05:29:29;103374.59;;;4.60;62.18
4705;BME280;2366;51.332;6.610;2023-01-25T05:31:55;103375.53;;;4.65;61.83
4705;BME280;2366;51.332;6.610;2023-01-25T05:34:20;103364.97;;;4.56;61.96
4705;BME280;2366;51.332;6.610;2023-01-25T05:36:45;103366.56;;;4.35;61.89
4705;BME280;2366;51.332;6.610;2023-01-25T05:39:11;103370.91;;;4.27;62.28
4705;BME280;2366;51.332;6.610;2023-01-25T05:41:36;103362.09;;;4.19;61.98
4705;BME280;2366;51.332;6.610;2023-01-25T05:44:02;103369.06;;;4.18;62.53
4705;BME280;2366;51.332;6.610;2023-01-25T05:46:28;103370.91;;;4.28;62.18
4705;BME280;2366;51.332;6.610;2023-01-25T05:48:54;103367.50;;;4.42;61.85
4705;BME280;2366;51.332;6.610;2023-01-25T05:51:19;103361.41;;;4.50;62.06
4705;BME280;2366;51.332;6.610;2023-01-25T05:53:44;103358.81;;;4.57;61.76
4705;BME280;2366;51.332;6.610;2023-01-25T05:56:10;103362.31;;;4.57;61.50
4705;BME280;2366;51.332;6.610;2023-01-25T05:58:36;103361.47;;;4.57;61.72
4705;BME280;2366;51.332;6.610;2023-01-25T06:01:03;103361.47;;;4.60;62.01
4705;BME280;2366;51.332;6.610;2023-01-25T06:03:29;103364.06;;;4.49;61.57
4705;BME280;2366;51.332;6.610;2023-01-25T06:05:59;103366.66;;;4.50;62.13
4705;BME280;2366;51.332;6.610;2023-01-25T06:08:27;103364.06;;;4.55;62.19
4705;BME280;2366;51.332;6.610;2023-01-25T06:10:52;103356.19;;;4.60;61.92
4705;BME280;2366;51.332;6.610;2023-01-25T06:13:18;103359.75;;;4.65;62.05
4705;BME280;2366;51.332;6.610;2023-01-25T06:15:51;103356.25;;;4.66;61.83
4705;BME280;2366;51.332;6.610;2023-01-25T06:18:16;103359.75;;;4.65;62.21
4705;BME280;2366;51.332;6.610;2023-01-25T06:20:42;103355.38;;;4.62;62.10
4705;BME280;2366;51.332;6.610;2023-01-25T06:23:07;103354.34;;;4.37;60.07
4705;BME280;2366;51.332;6.610;2023-01-25T06:25:32;103356.06;;;4.32;62.41
4705;BME280;2366;51.332;6.610;2023-01-25T06:27:57;103359.59;;;4.37;62.42
4705;BME280;2366;51.332;6.610;2023-01-25T06:30:23;103359.59;;;4.37;62.08
4705;BME280;2366;51.332;6.610;2023-01-25T06:32:48;103349.13;;;4.40;62.30
4705;BME280;2366;51.332;6.610;2023-01-25T06:35:14;103350.00;;;4.44;62.16
4705;BME280;2366;51.332;6.610;2023-01-25T06:37:40;103354.41;;;4.52;62.03
4705;BME280;2366;51.332;6.610;2023-01-25T06:40:05;103352.72;;;4.61;62.21
4705;BME280;2366;51.332;6.610;2023-01-25T06:42:31;103346.59;;;4.63;62.10
4705;BME280;2366;51.332;6.610;2023-01-25T06:44:56;103341.38;;;4.69;61.97
4705;BME280;2366;51.332;6.610;2023-01-25T06:47:21;103343.97;;;4.65;61.90
4705;BME280;2366;51.332;6.610;2023-01-25T06:49:47;103347.47;;;4.61;62.02
4705;BME280;2366;51.332;6.610;2023-01-25T06:52:12;103348.34;;;4.58;62.59
4705;BME280;2366;51.332;6.610;2023-01-25T06:54:37;103352.69;;;4.59;62.41
4705;BME280;2366;51.332;6.610;2023-01-25T06:57:03;103355.34;;;4.64;62.54
4705;BME280;2366;51.332;6.610;2023-01-25T06:59:28;103357.16;;;4.69;62.67
4705;BME280;2366;51.332;6.610;2023-01-25T07:01:53;103358.88;;;4.66;62.72
4705;BME280;2366;51.332;6.610;2023-01-25T07:04:19;103355.28;;;4.47;61.74
4705;BME280;2366;51.332;6.610;2023-01-25T07:06:44;103349.13;;;4.45;63.10
4705;BME280;2366;51.332;6.610;2023-01-25T07:09:12;103345.66;;;4.50;63.15
4705;BME280;2366;51.332;6.610;2023-01-25T07:11:37;103350.94;;;4.53;63.05
4705;BME280;2366;51.332;6.610;2023-01-25T07:14:03;103360.59;;;4.59;62.65
4705;BME280;2366;51.332;6.610;2023-01-25T07:16:29;103352.69;;;4.51;62.25
4705;BME280;2366;51.332;6.610;2023-01-25T07:19:01;103354.31;;;4.34;62.48
4705;BME280;2366;51.332;6.610;2023-01-25T07:21:27;103352.56;;;4.33;62.97
4705;BME280;2366;51.332;6.610;2023-01-25T07:23:52;103350.00;;;4.45;62.87
4705;BME280;2366;51.332;6.610;2023-01-25T07:26:18;103348.28;;;4.52;62.70
4705;BME280;2366;51.332;6.610;2023-01-25T07:28:45;103353.50;;;4.44;62.56
4705;BME280;2366;51.332;6.610;2023-01-25T07:31:10;103349.91;;;4.31;62.49
4705;BME280;2366;51.332;6.610;2023-01-25T07:33:36;103352.53;;;4.30;62.37
4705;BME280;2366;51.332;6.610;2023-01-25T07:36:03;103351.63;;;4.25;62.25
4705;BME280;2366;51.332;6.610;2023-01-25T07:38:29;103345.41;;;4.10;61.84
4705;BME280;2366;51.332;6.610;2023-01-25T07:40:54;103347.06;;;3.99;62.75
4705;BME280;2366;51.332;6.610;2023-01-25T07:43:20;103347.09;;;4.04;63.02
4705;BME280;2366;51.332;6.610;2023-01-25T07:45:45;103349.63;;;3.95;62.88
4705;BME280;2366;51.332;6.610;2023-01-25T07:48:15;103348.84;;;4.02;63.55
4705;BME280;2366;51.332;6.610;2023-01-25T07:50:40;103355.03;;;4.11;63.51
4705;BME280;2366;51.332;6.610;2023-01-25T07:53:06;103347.19;;;4.18;63.08
4705;BME280;2366;51.332;6.610;2023-01-25T07:55:32;103344.56;;;4.18;63.04
4705;BME280;2366;51.332;6.610;2023-01-25T07:57:58;103341.91;;;4.13;63.11
4705;BME280;2366;51.332;6.610;2023-01-25T08:00:25;103342.00;;;4.24;63.31
4705;BME280;2366;51.332;6.610;2023-01-25T08:02:50;103336.78;;;4.30;62.84
4705;BME280;2366;51.332;6.610;2023-01-25T08:05:16;103343.00;;;4.43;62.78
4705;BME280;2366;51.332;6.610;2023-01-25T08:07:41;103329.00;;;4.50;62.63
4705;BME280;2366;51.332;6.610;2023-01-25T08:10:07;103333.34;;;4.39;62.33
4705;BME280;2366;51.332;6.610;2023-01-25T08:12:33;103321.84;;;4.24;62.10
4705;BME280;2366;51.332;6.610;2023-01-25T08:14:59;103327.03;;;4.15;62.59
4705;BME280;2366;51.332;6.610;2023-01-25T08:17:25;103331.34;;;4.04;62.71
4705;BME280;2366;51.332;6.610;2023-01-25T08:19:56;103331.34;;;4.05;62.76
4705;BME280;2366;51.332;6.610;2023-01-25T08:22:22;103333.91;;;3.96;62.75
4705;BME280;2366;51.332;6.610;2023-01-25T08:24:48;103326.94;;;4.00;63.78
4705;BME280;2366;51.332;6.610;2023-01-25T08:27:14;103330.53;;;4.11;63.33
4705;BME280;2366;51.332;6.610;2023-01-25T08:29:39;103329.75;;;4.29;63.08
4705;BME280;2366;51.332;6.610;2023-01-25T08:32:05;103333.31;;;4.34;62.49
4705;BME280;2366;51.332;6.610;2023-01-25T08:34:31;103330.63;;;4.28;62.78
4705;BME280;2366;51.332;6.610;2023-01-25T08:36:57;103319.25;;;4.26;62.38
4705;BME280;2366;51.332;6.610;2023-01-25T08:39:22;103321.88;;;4.30;62.81
4705;BME280;2366;51.332;6.610;2023-01-25T08:41:48;103322.78;;;4.36;62.27
4705;BME280;2366;51.332;6.610;2023-01-25T08:44:13;103321.94;;;4.40;62.25
4705;BME280;2366;51.332;6.610;2023-01-25T08:46:38;103319.38;;;4.49;62.36
4705;BME280;2366;51.332;6.610;2023-01-25T08:49:04;103328.09;;;4.46;62.47
4705;BME280;2366;51.332;6.610;2023-01-25T08:51:31;103321.06;;;4.42;62.57
4705;BME280;2366;51.332;6.610;2023-01-25T08:54:02;103310.47;;;4.24;61.67
4705;BME280;2366;51.332;6.610;2023-01-25T08:56:27;103321.78;;;4.10;62.74
4705;BME280;2366;51.332;6.610;2023-01-25T08:58:52;103323.44;;;4.01;63.10
4705;BME280;2366;51.332;6.610;2023-01-25T09:01:18;103317.41;;;4.14;63.37
4705;BME280;2366;51.332;6.610;2023-01-25T09:03:47;103317.28;;;3.93;62.76
4705;BME280;2366;51.332;6.610;2023-01-25T09:06:13;103319.00;;;3.92;62.70
4705;BME280;2366;51.332;6.610;2023-01-25T09:08:39;103316.50;;;4.06;63.65
4705;BME280;2366;51.332;6.610;2023-01-25T09:11:11;103311.44;;;4.37;63.21
4705;BME280;2366;51.332;6.610;2023-01-25T09:13:36;103307.88;;;4.31;62.50
4705;BME280;2366;51.332;6.610;2023-01-25T09:16:07;103306.94;;;4.19;62.61
4705;BME280;2366;51.332;6.610;2023-01-25T09:18:35;103306.94;;;4.19;62.95
4705;BME280;2366;51.332;6.610;2023-01-25T09:21:05;103301.63;;;4.11;62.59
4705;BME280;2366;51.332;6.610;2023-01-25T09:23:31;103307.00;;;4.28;62.82
4705;BME280;2366;51.332;6.610;2023-01-25T09:25:58;103302.69;;;4.42;62.99
4705;BME280;2366;51.332;6.610;2023-01-25T09:28:25;103308.91;;;4.60;62.55
4705;BME280;2366;51.332;6.610;2023-01-25T09:31:02;103307.19;;;4.68;61.70
4705;BME280;2366;51.332;6.610;2023-01-25T09:33:33;103298.44;;;4.69;62.04
4705;BME280;2366;51.332;6.610;2023-01-25T09:35:59;103294.94;;;4.70;61.72
4705;BME280;2366;51.332;6.610;2023-01-25T09:38:25;103287.91;;;4.66;62.06
4705;BME280;2366;51.332;6.610;2023-01-25T09:44:09;103276.59;;;4.82;61.61
4705;BME280;2366;51.332;6.610;2023-01-25T09:46:52;103275.72;;;4.91;62.13
4705;BME280;2366;51.332;6.610;2023-01-25T09:53:31;103279.25;;;4.98;61.50
4705;BME280;2366;51.332;6.610;2023-01-25T09:55:26;103276.59;;;4.87;60.61
4705;BME280;2366;51.332;6.610;2023-01-25T09:57:53;103284.44;;;4.73;61.50
4705;BME280;2366;51.332;6.610;2023-01-25T10:00:48;103278.22;;;4.49;62.36
4705;BME280;2366;51.332;6.610;2023-01-25T10:03:26;103273.84;;;4.56;62.10
4705;BME280;2366;51.332;6.610;2023-01-25T10:05:55;103268.69;;;4.73;62.01
4705;BME280;2366;51.332;6.610;2023-01-25T10:08:41;103266.94;;;4.81;60.81
4705;BME280;2366;51.332;6.610;2023-01-25T10:11:22;103261.69;;;4.84;61.14
4705;BME280;2366;51.332;6.610;2023-01-25T10:13:49;103272.19;;;4.81;61.12
4705;BME280;2366;51.332;6.610;2023-01-25T10:16:25;103276.59;;;4.84;61.31
4705;BME280;2366;51.332;6.610;2023-01-25T10:22:00;103269.56;;;4.75;61.19
4705;BME280;2366;51.332;6.610;2023-01-25T10:24:38;103267.84;;;4.86;61.44
4705;BME280;2366;51.332;6.610;2023-01-25T10:29:43;103264.28;;;4.72;60.78
4705;BME280;2366;51.332;6.610;2023-01-25T10:32:18;103260.78;;;4.74;61.77
4705;BME280;2366;51.332;6.610;2023-01-25T10:34:48;103253.78;;;4.73;61.22
4705;BME280;2366;51.332;6.610;2023-01-25T10:37:21;103254.66;;;4.77;60.52
4705;BME280;2366;51.332;6.610;2023-01-25T10:39:53;103245.75;;;4.44;62.25
4705;BME280;2366;51.332;6.610;2023-01-25T10:42:21;103248.50;;;4.67;61.65
4705;BME280;2366;51.332;6.610;2023-01-25T10:44:49;103238.00;;;4.75;62.00
4705;BME280;2366;51.332;6.610;2023-01-25T10:47:20;103232.78;;;4.86;61.80
4705;BME280;2366;51.332;6.610;2023-01-25T10:49:58;103226.59;;;4.74;60.59
4705;BME280;2366;51.332;6.610;2023-01-25T10:52:26;103220.47;;;4.66;61.49
4705;BME280;2366;51.332;6.610;2023-01-25T10:58:07;103215.97;;;4.39;61.32
4705;BME280;2366;51.332;6.610;2023-01-25T11:00:50;103213.41;;;4.51;62.41
4705;BME280;2366;51.332;6.610;2023-01-25T11:03:20;103214.31;;;4.66;61.13
4705;BME280;2366;51.332;6.610;2023-01-25T11:05:53;103205.53;;;4.64;61.79
4705;BME280;2366;51.332;6.610;2023-01-25T11:10:58;103202.03;;;4.60;62.16
4705;BME280;2366;51.332;6.610;2023-01-25T11:13:26;103195.81;;;4.35;60.06
4705;BME280;2366;51.332;6.610;2023-01-25T11:16:26;103193.91;;;4.03;63.35
4705;BME280;2366;51.332;6.610;2023-01-25T11:18:54;103188.81;;;4.29;62.54
4705;BME280;2366;51.332;6.610;2023-01-25T11:21:23;103178.34;;;4.45;63.21
4705;BME280;2366;51.332;6.610;2023-01-25T11:23:59;103181.06;;;4.77;62.37
4705;BME280;2366;51.332;6.610;2023-01-25T11:26:25;103179.31;;;4.84;62.28
4705;BME280;2366;51.332;6.610;2023-01-25T11:29:25;103168.75;;;4.79;61.58
4705;BME280;2366;51.332;6.610;2023-01-25T11:31:54;103163.53;;;4.91;61.24
4705;BME280;2366;51.332;6.610;2023-01-25T11:34:27;103152.16;;;4.96;61.14
4705;BME280;2366;51.332;6.610;2023-01-25T11:37:19;103139.00;;;4.96;61.38
4705;BME280;2366;51.332;6.610;2023-01-25T11:40:00;103133.75;;;5.08;61.40
4705;BME280;2366;51.332;6.610;2023-01-25T11:42:51;103131.09;;;5.15;61.76
4705;BME280;2366;51.332;6.610;2023-01-25T11:45:41;103130.22;;;5.30;61.16
4705;BME280;2366;51.332;6.610;2023-01-25T11:51:05;103115.31;;;5.39;60.90
4705;BME280;2366;51.332;6.610;2023-01-25T12:07:01;103088.13;;;5.26;60.06
4705;BME280;2366;51.332;6.610;2023-01-25T12:09:46;103082.88;;;5.27;60.36
4705;BME280;2366;51.332;6.610;2023-01-25T12:12:20;103076.72;;;5.36;60.52
4705;BME280;2366;51.332;6.610;2023-01-25T12:23:05;103029.38;;;5.30;59.55
4705;BME280;2366;51.332;6.610;2023-01-25T12:31:03;103016.25;;;5.07;59.73
4705;BME280;2366;51.332;6.610;2023-01-25T12:36:09;103009.22;;;5.33;60.28
4705;BME280;2366;51.332;6.610;2023-01-25T12:38:43;102993.41;;;5.30;59.76
4705;BME280;2366;51.332;6.610;2023-01-25T12:41:27;102995.19;;;5.25;59.96
4705;BME280;2366;51.332;6.610;2023-01-25T12:44:05;102996.94;;;5.29;59.61
4705;BME280;2366;51.332;6.610;2023-01-25T12:46:37;102986.44;;;5.23;59.72
4705;BME280;2366;51.332;6.610;2023-01-25T12:49:14;102978.53;;;5.22;59.96
4705;BME280;2366;51.332;6.610;2023-01-25T12:51:41;102974.97;;;5.35;60.57
4705;BME280;2366;51.332;6.610;2023-01-25T12:54:29;102971.47;;;5.41;60.23
4705;BME280;2366;51.332;6.610;2023-01-25T12:57:06;102966.16;;;5.50;59.40
4705;BME280;2366;51.332;6.610;2023-01-25T12:59:44;102960.91;;;5.47;59.83
4705;BME280;2366;51.332;6.610;2023-01-25T13:02:49;102949.47;;;5.55;59.90
4705;BME280;2366;51.332;6.610;2023-01-25T13:06:05;102949.47;;;5.48;59.11
4705;BME280;2366;51.332;6.610;2023-01-25T13:10:42;102928.47;;;5.45;58.87
4705;BME280;2366;51.332;6.610;2023-01-25T13:13:23;102928.44;;;5.48;59.68
4705;BME280;2366;51.332;6.610;2023-01-25T13:15:49;102925.81;;;5.43;59.61
4705;BME280;2366;51.332;6.610;2023-01-25T13:20:55;102913.53;;;5.44;59.26
4705;BME280;2366;51.332;6.610;2023-01-25T13:23:39;102910.13;;;5.29;59.55
4705;BME280;2366;51.332;6.610;2023-01-25T13:28:47;102907.53;;;5.17;60.33
4705;BME280;2366;51.332;6.610;2023-01-25T13:42:00;102891.81;;;5.03;62.09
4705;BME280;2366;51.332;6.610;2023-01-25T13:44:28;102894.38;;;5.17;61.49
4705;BME280;2366;51.332;6.610;2023-01-25T13:46:59;102897.84;;;5.30;61.40
4705;BME280;2366;51.332;6.610;2023-01-25T13:49:33;102897.84;;;5.28;60.74
4705;BME280;2366;51.332;6.610;2023-01-25T13:52:00;102889.06;;;5.28;60.80
4705;BME280;2366;51.332;6.610;2023-01-25T13:54:28;102890.81;;;5.32;61.11
4705;BME280;2366;51.332;6.610;2023-01-25T13:57:04;102885.53;;;5.33;61.10
4705;BME280;2366;51.332;6.610;2023-01-25T13:59:30;102875.97;;;5.15;61.20
4705;BME280;2366;51.332;6.610;2023-01-25T14:01:56;102878.59;;;5.15;61.60
4705;BME280;2366;51.332;6.610;2023-01-25T14:04:23;102870.72;;;5.19;61.11
4705;BME280;2366;51.332;6.610;2023-01-25T14:06:54;102875.06;;;5.26;61.12
4705;BME280;2366;51.332;6.610;2023-01-25T14:09:21;102877.69;;;5.24;61.70
4705;BME280;2366;51.332;6.610;2023-01-25T14:11:56;102875.94;;;5.25;61.65
4705;BME280;2366;51.332;6.610;2023-01-25T14:14:27;102870.69;;;5.23;61.79
4705;BME280;2366;51.332;6.610;2023-01-25T14:19:35;102876.88;;;5.10;62.25
4705;BME280;2366;51.332;6.610;2023-01-25T14:24:44;102874.22;;;5.19;61.92
4705;BME280;2366;51.332;6.610;2023-01-25T14:27:13;102868.03;;;5.28;62.17
4705;BME280;2366;51.332;6.610;2023-01-25T14:29:39;102860.13;;;5.29;60.19
4705;BME280;2366;51.332;6.610;2023-01-25T14:32:05;102857.56;;;5.19;61.71
4705;BME280;2366;51.332;6.610;2023-01-25T14:34:30;102856.63;;;5.26;62.05
4705;BME280;2366;51.332;6.610;2023-01-25T14:37:16;102860.06;;;5.40;62.25
4705;BME280;2366;51.332;6.610;2023-01-25T14:39:43;102861.06;;;5.19;61.76
4705;BME280;2366;51.332;6.610;2023-01-25T14:42:10;102847.88;;;5.24;61.90
4705;BME280;2366;51.332;6.610;2023-01-25T14:44:36;102838.19;;;5.29;61.97
4705;BME280;2366;51.332;6.610;2023-01-25T14:47:29;102835.56;;;5.30;62.18
4705;BME280;2366;51.332;6.610;2023-01-25T14:50:34;102833.78;;;5.32;61.82